Flight Track Log - Related Links

Times and Time Zones

All times are in EDT time to prevent confusion due to time zone crossing. See the EJA922 flight status page for this flight to view local times or setup timezone preferences in your user account.

Time Position Orientation Groundspeed Altitude Reporting Facility
EDT Latitude Longitude Course Direction KTS MPH feet Rate Location/Type
Wed 12:57:51 PM 37.6667 -122.3167 55° Northeast 205 236 2,800  Level Northern Cal TRACON
Wed 12:58:45 PM 37.7000 -122.2667 50° Northeast 237 273 5,100 2,441 Climbing Northern Cal TRACON
Wed 01:00:16 PM 37.7797 -122.1808 40° Northeast 268 308 8,700 2,211 Climbing Oakland Center
Wed 01:01:17 PM 37.8436 -122.1208 37° Northeast 283 326 10,700 1,707 Climbing Oakland Center
Wed 01:02:19 PM 37.9208 -122.0481 37° Northeast 348 400 12,200 1,756 Climbing Oakland Center
Wed 01:03:00 PM 37.8891 -121.3781 55° Northeast  Level Estimated
Wed 01:03:20 PM 38.0031 -121.9708 36° Northeast 367 422 14,300  Level Oakland Center
Wed 01:04:22 PM 38.1072 -121.8728 37° Northeast 390 449 16,600 1,902 Climbing Oakland Center
Wed 01:05:23 PM 38.1967 -121.7858 37° Northeast 406 467 18,200 1,561 Climbing Oakland Center
Wed 01:06:25 PM 38.2903 -121.6983 36° Northeast 418 481 19,800 1,561 Climbing Oakland Center
Wed 01:07:26 PM 38.3867 -121.6061 37° Northeast 430 495 21,400 1,659 Climbing Oakland Center
Wed 01:08:28 PM 38.4844 -121.4842 44° Northeast 451 519 23,200 1,561 Climbing Oakland Center
Wed 01:09:29 PM 38.5522 -121.3675 53° Northeast 459 528 24,600 1,328 Climbing Oakland Center
Wed 01:10:30 PM 38.6289 -121.2339 54° Northeast 463 533 25,900 1,220 Climbing Oakland Center
Wed 01:11:32 PM 38.7081 -121.0964 54° Northeast 480 552 27,100 1,171 Climbing Oakland Center
Wed 01:12:33 PM 38.8081 -120.9239 53° Northeast 496 571 28,300 1,073 Climbing Oakland Center
Wed 01:13:35 PM 38.8928 -120.7761 54° Northeast 508 585 29,300 976 Climbing Oakland Center
Wed 01:14:36 PM 38.9803 -120.6228 54° Northeast 525 604 30,300 984 Climbing Oakland Center
Wed 01:15:37 PM 39.0692 -120.4697 53° Northeast 532 612 31,300 1,268 Climbing Oakland Center
Wed 01:16:39 PM 39.1583 -120.3117 54° Northeast 541 623 32,900 1,659 Climbing Oakland Center
Wed 01:17:40 PM 39.2469 -120.1575 53° Northeast 538 619 34,700 1,756 Climbing Oakland Center
Wed 01:18:42 PM 39.3378 -119.9975 54° Northeast 533 613 36,500 1,122 Climbing Oakland Center
Wed 01:19:43 PM 39.4272 -119.8411 53° Northeast 538 619 37,000 242 Climbing Oakland Center
Wed 01:20:46 PM 39.5197 -119.6769 54° Northeast 562 647 37,000 244 Level Oakland Center
Wed 01:21:46 PM 39.6147 -119.5047 54° Northeast 582 670 37,500 738 Climbing Oakland Center
Wed 01:22:48 PM 39.7103 -119.3369 53° Northeast 574 661 38,500 1,073 Climbing Oakland Center
Wed 01:23:49 PM 39.8233 -119.1322 54° Northeast 575 662 39,700 1,073 Climbing Oakland Center
Wed 01:24:51 PM 39.9144 -118.9653 55° Northeast 564 649 40,700 634 Climbing Oakland Center
Wed 01:25:52 PM 40.0047 -118.7989 55° Northeast 559 643 41,000 146 Climbing Oakland Center
Wed 01:26:54 PM 40.0964 -118.6294 55° Northeast 565 650 41,000  Level Oakland Center
Wed 01:27:55 PM 40.1636 -118.4375 65° Northeast 581 669 41,000  Level Oakland Center
Wed 01:28:57 PM 40.2181 -118.2386 70° East 578 665 41,000  Level Oakland Center
Wed 01:29:58 PM 40.2719 -118.0392 70° East 579 666 41,000  Level Oakland Center
Wed 01:30:59 PM 40.3292 -117.8269 70° East 584 672 41,000  Level Oakland Center
Wed 01:32:01 PM 40.3817 -117.6336 70° East 587 676 41,000  Level Oakland Center
Wed 01:33:02 PM 40.4428 -117.4028 71° East 593 682 41,000  Level Oakland Center
Wed 01:33:32 PM 40.4694 -117.3036 71° East 596 686 41,000  Level Salt Lake Center
Wed 01:34:34 PM 40.5222 -117.1053 71° East 595 685 41,000  Level Salt Lake Center
Wed 01:35:36 PM 40.5747 -116.9033 71° East 596 686 41,000  Level Salt Lake Center
Wed 01:36:38 PM 40.6375 -116.6711 70° East 594 684 41,000  Level Salt Lake Center
Wed 01:37:40 PM 40.6914 -116.4744 70° East 593 682 41,000  Level Salt Lake Center
Wed 01:38:42 PM 40.7525 -116.2461 70° East 590 679 41,000  Level Salt Lake Center
Wed 01:39:44 PM 40.8042 -116.0489 71° East 592 681 41,000  Level Salt Lake Center
Wed 01:40:47 PM 40.8556 -115.8519 71° East 593 682 41,000  Level Salt Lake Center
Wed 01:41:48 PM 40.9164 -115.6219 71° East 593 682 41,000  Level Salt Lake Center
Wed 01:42:50 PM 40.9678 -115.4236 71° East 594 684 41,000  Level Salt Lake Center
Wed 01:43:52 PM 41.0253 -115.1931 72° East 593 682 41,000  Level Salt Lake Center
Wed 01:44:54 PM 41.0756 -114.9953 71° East 591 680 41,000  Level Salt Lake Center
Wed 01:45:56 PM 41.1278 -114.7906 71° East 588 677 41,000  Level Salt Lake Center
Wed 01:46:58 PM 41.1794 -114.5850 71° East 589 678 41,000  Level Salt Lake Center
Wed 01:48:00 PM 41.2392 -114.3389 72° East 586 674 41,000  Level Salt Lake Center
Wed 01:49:02 PM 41.2897 -114.1333 72° East 586 674 41,000  Level Salt Lake Center
Wed 01:50:04 PM 41.3406 -113.9292 72° East 583 671 41,000  Level Salt Lake Center
Wed 01:51:06 PM 41.3736 -113.7192 78° East 581 669 41,000  Level Salt Lake Center
Wed 01:52:08 PM 41.3844 -113.5078 86° East 576 663 41,000  Level Salt Lake Center
Wed 01:53:10 PM 41.3969 -113.2964 85° East 574 661 41,000  Level Salt Lake Center
Wed 01:54:12 PM 41.4131 -113.0422 85° East 573 659 41,000  Level Salt Lake Center
Wed 01:55:14 PM 41.4256 -112.8300 85° East 575 662 41,000  Level Salt Lake Center
Wed 01:56:16 PM 41.4386 -112.6194 85° East 572 658 41,000  Level Salt Lake Center
Wed 01:57:18 PM 41.4508 -112.4083 86° East 571 657 41,000  Level Salt Lake Center
Wed 01:58:21 PM 41.4619 -112.1967 86° East 570 656 41,000  Level Salt Lake Center
Wed 01:59:23 PM 41.4736 -111.9850 86° East 569 655 41,000  Level Salt Lake Center
Wed 02:00:25 PM 41.4842 -111.7719 86° East 570 656 41,000  Level Salt Lake Center
Wed 02:01:27 PM 41.4964 -111.5172 86° East 569 655 41,000  Level Salt Lake Center
Wed 02:02:29 PM 41.5069 -111.3042 86° East 573 659 41,000  Level Salt Lake Center
Wed 02:03:31 PM 41.5156 -111.0919 87° East 572 658 41,000  Level Salt Lake Center
Wed 02:04:33 PM 41.5247 -110.8761 87° East 573 659 41,000  Level Salt Lake Center
Wed 02:05:35 PM 41.5342 -110.6722 86° East 575 662 41,000  Level Salt Lake Center
Wed 02:06:37 PM 41.5433 -110.4367 87° East 572 658 41,000  Level Salt Lake Center
Wed 02:07:39 PM 41.5506 -110.2344 87° East 571 657 41,000  Level Salt Lake Center
Wed 02:08:41 PM 41.5594 -109.9994 87° East 569 655 41,000  Level Salt Lake Center
Wed 02:09:43 PM 41.5661 -109.7975 87° East 569 655 41,000  Level Salt Lake Center
Wed 02:10:45 PM 41.5742 -109.5625 87° East 567 652 41,000  Level Salt Lake Center
Wed 02:11:47 PM 41.5808 -109.3600 87° East 566 651 41,000  Level Salt Lake Center
Wed 02:12:49 PM 41.5878 -109.1194 88° East 570 656 41,000  Level Salt Lake Center
Wed 02:13:51 PM 41.5978 -108.9131 86° East 571 657 41,000  Level Salt Lake Center
Wed 02:14:53 PM 41.6144 -108.7114 84° East 569 655 41,000  Level Salt Lake Center
Wed 02:15:55 PM 41.6311 -108.4772 84° East 565 650 41,000  Level Salt Lake Center
Wed 02:16:57 PM 41.6453 -108.2767 85° East 566 651 41,000  Level Salt Lake Center
Wed 02:17:59 PM 41.6631 -108.0442 84° East 566 651 41,000  Level Salt Lake Center
Wed 02:19:15 PM 41.6808 -107.7761 85° East 564 649 41,000  Level Denver Center
Wed 02:20:16 PM 41.6950 -107.5775 84° East 561 646 41,000  Level Denver Center
Wed 02:21:18 PM 41.7075 -107.3789 85° East 560 644 41,000  Level Denver Center
Wed 02:22:20 PM 41.7228 -107.1503 85° East 554 638 41,000  Level Denver Center
Wed 02:23:22 PM 41.7336 -106.9550 86° East 551 634 41,000  Level Denver Center
Wed 02:24:24 PM 41.7478 -106.7283 85° East 547 629 41,000  Level Denver Center
Wed 02:25:38 PM 41.7589 -106.5336 86° East 549 632 41,000  Level Denver Center
Wed 02:26:40 PM 41.7739 -106.2778 85° East 551 634 41,000  Level Denver Center
Wed 02:27:42 PM 41.7853 -106.0483 86° East 552 635 41,000  Level Denver Center
Wed 02:28:44 PM 41.7958 -105.8531 86° East 553 636 41,000  Level Denver Center
Wed 02:29:46 PM 41.8086 -105.6256 86° East 550 633 41,000  Level Denver Center
Wed 02:31:00 PM 41.8175 -105.4289 86° East 552 635 41,000  Level Denver Center
Wed 02:32:02 PM 41.8297 -105.1678 86° East 552 635 41,000  Level Denver Center
Wed 02:33:04 PM 41.8381 -104.9725 87° East 551 634 41,000  Level Denver Center
Wed 02:34:06 PM 41.8475 -104.7447 87° East 551 634 41,000  Level Denver Center
Wed 02:35:08 PM 41.8544 -104.5533 87° East 543 625 41,000  Level Denver Center
Wed 02:36:10 PM 41.8642 -104.3264 87° East 547 629 41,000  Level Denver Center
Wed 02:37:12 PM 41.8711 -104.1317 87° East 548 631 41,000  Level Denver Center
Wed 02:38:13 PM 41.8792 -103.9056 87° East 546 628 41,000  Level Denver Center
Wed 02:39:15 PM 41.8853 -103.7131 87° East 544 626 41,000  Level Denver Center
Wed 02:40:17 PM 41.8914 -103.4856 88° East 547 629 41,000  Level Denver Center
Wed 02:41:19 PM 41.8783 -103.2922 95° East 544 626 41,000  Level Denver Center
Wed 02:42:21 PM 41.8606 -103.0678 96° East 544 626 41,000  Level Denver Center
Wed 02:43:23 PM 41.8436 -102.8756 97° East 543 625 41,000  Level Denver Center
Wed 02:44:25 PM 41.8250 -102.6514 96° East 544 626 41,000  Level Denver Center
Wed 02:45:26 PM 41.8086 -102.4608 97° East 540 621 41,000  Level Denver Center
Wed 02:46:28 PM 41.7953 -102.3028 96° East 537 618 41,000  Level Denver Center
Wed 02:47:30 PM 41.7742 -102.0669 97° East 537 618 41,000  Level Denver Center
Wed 02:48:32 PM 41.7533 -101.8469 97° East 535 616 41,000  Level Denver Center
Wed 02:49:46 PM 41.7364 -101.6561 97° East 539 620 41,000  Level Denver Center
Wed 02:50:48 PM 41.7117 -101.4039 97° East 535 616 41,000  Level Denver Center
Wed 02:51:50 PM 41.6933 -101.2122 97° East 539 620 41,000  Level Denver Center
Wed 02:52:52 PM 41.6708 -100.9892 98° East 540 621 41,000  Level Denver Center
Wed 02:53:54 PM 41.6525 -100.7978 97° East 540 621 41,000  Level Denver Center
Wed 02:54:56 PM 41.6294 -100.5747 98° East 542 624 41,000  Level Denver Center
Wed 02:55:57 PM 41.6097 -100.3842 98° East 540 621 41,000  Level Denver Center
Wed 02:56:59 PM 41.5856 -100.1642 98° East 536 617 41,000  Level Denver Center
Wed 02:58:01 PM 41.5658 -99.9742 98° East 537 618 41,000  Level Denver Center
Wed 02:59:03 PM 41.5453 -99.7844 98° East 537 618 41,000  Level Denver Center
Wed 03:00:05 PM 41.5200 -99.5664 99° East 539 620 41,000  Level Denver Center
Wed 03:01:07 PM 41.4981 -99.3681 98° East 539 620 41,000  Level Denver Center
Wed 03:02:09 PM 41.4756 -99.1692 99° East 541 623 41,000  Level Denver Center
Wed 03:03:11 PM 41.4558 -99.0081 99° East 542 624 41,000  Level Denver Center
Wed 03:04:13 PM 41.4283 -98.7678 99° East 541 623 41,000  Level Denver Center
Wed 03:05:15 PM 41.4086 -98.6064 99° East 542 624 41,000  Level Denver Center
Wed 03:06:17 PM 41.3842 -98.3253 97° East 542 624 41,000  Level Denver Center
Wed 03:07:32 PM 41.4000 -98.0939 85° East 544 626 41,000  Level Minneapolis Center
Wed 03:08:34 PM 41.4131 -97.8903 85° East 548 631 41,000  Level Minneapolis Center
Wed 03:09:35 PM 41.4244 -97.6886 86° East 549 632 41,000  Level Minneapolis Center
Wed 03:10:37 PM 41.4367 -97.4844 85° East 551 634 41,000  Level Minneapolis Center
Wed 03:11:39 PM 41.4506 -97.2378 86° East 554 638 41,000  Level Minneapolis Center
Wed 03:12:41 PM 41.4614 -97.0347 86° East 552 635 41,000  Level Minneapolis Center
Wed 03:13:43 PM 41.4725 -96.8303 86° East 552 635 41,000  Level Minneapolis Center
Wed 03:14:45 PM 41.4825 -96.6256 86° East 551 634 41,000  Level Minneapolis Center
Wed 03:15:47 PM 41.4936 -96.4208 86° East 552 635 41,000  Level Minneapolis Center
Wed 03:16:48 PM 41.4997 -96.2019 88° East 556 640 41,000  Level Minneapolis Center
Wed 03:17:50 PM 41.5081 -95.9967 87° East 555 639 41,000  Level Minneapolis Center
Wed 03:18:52 PM 41.5203 -95.7933 85° East 551 634 41,000  Level Minneapolis Center
Wed 03:19:54 PM 41.5294 -95.5858 87° East 552 635 41,000  Level Minneapolis Center
Wed 03:20:56 PM 41.5381 -95.3822 87° East 550 633 41,000  Level Minneapolis Center
Wed 03:21:58 PM 41.5472 -95.1356 87° East 552 635 41,000  Level Minneapolis Center
Wed 03:23:00 PM 41.5539 -94.9306 87° East 554 638 41,000  Level Minneapolis Center
Wed 03:24:02 PM 41.5611 -94.7242 87° East 556 640 41,000  Level Minneapolis Center
Wed 03:25:04 PM 41.5675 -94.5200 88° East 552 635 41,000  Level Minneapolis Center
Wed 03:26:05 PM 41.5742 -94.3150 87° East 553 636 41,000  Level Minneapolis Center
Wed 03:27:07 PM 41.5775 -94.1219 89° East 549 632 41,000  Level Minneapolis Center
Wed 03:28:09 PM 41.5850 -93.8792 88° East 548 631 41,000  Level Minneapolis Center
Wed 03:29:11 PM 41.5911 -93.6772 88° East 548 631 41,000  Level Minneapolis Center
Wed 03:30:12 PM 41.5967 -93.4750 88° East 548 631 41,000  Level Minneapolis Center
Wed 03:31:14 PM 41.6011 -93.2725 88° East 550 633 41,000  Level Minneapolis Center
Wed 03:32:16 PM 41.6050 -93.0725 88° East 546 628 41,000  Level Minneapolis Center
Wed 03:33:18 PM 41.6092 -92.8722 88° East 543 625 41,000  Level Minneapolis Center
Wed 03:34:27 PM 41.6136 -92.6075 89° East 541 623 41,000  Level Chicago Center
Wed 03:35:29 PM 41.6158 -92.4081 89° East 543 625 41,000  Level Chicago Center
Wed 03:36:31 PM 41.6178 -92.2086 89° East 544 626 41,000  Level Chicago Center
Wed 03:37:33 PM 41.6208 -92.0081 89° East 546 628 41,000  Level Chicago Center
Wed 03:38:35 PM 41.6225 -91.8089 89° East 544 626 41,000  Level Chicago Center
Wed 03:39:37 PM 41.6242 -91.5711 89° East 541 623 41,000  Level Chicago Center
Wed 03:40:39 PM 41.6256 -91.3725 89° East 541 623 41,000  Level Chicago Center
Wed 03:41:41 PM 41.6256 -91.1742 90° East 541 623 41,000  Level Chicago Center
Wed 03:42:44 PM 41.6267 -90.9761 90° East 541 623 41,000  Level Chicago Center
Wed 03:43:46 PM 41.6264 -90.7378 90° East 541 623 41,000  Level Chicago Center
Wed 03:44:48 PM 41.6261 -90.5242 90° East 545 627 41,000  Level Chicago Center
Wed 03:45:50 PM 41.6244 -90.3208 91° East 546 628 41,000  Level Chicago Center
Wed 03:46:52 PM 41.6244 -90.1211 90° East 539 620 41,000  Level Chicago Center
Wed 03:47:54 PM 41.6222 -89.9206 91° East 538 619 41,000  Level Chicago Center
Wed 03:48:56 PM 41.6219 -89.7214 90° East 535 616 41,000  Level Chicago Center
Wed 03:49:58 PM 41.6194 -89.5147 91° East 539 620 41,000  Level Chicago Center
Wed 03:51:01 PM 41.6158 -89.3172 91° East 536 617 41,000  Level Chicago Center
Wed 03:52:02 PM 41.6111 -89.0803 91° East 534 615 41,000  Level Chicago Center
Wed 03:53:05 PM 41.6086 -88.8828 91° East 535 616 41,000  Level Chicago Center
Wed 03:54:07 PM 41.6050 -88.6842 91° East 536 617 41,000  Level Chicago Center
Wed 03:55:09 PM 41.6022 -88.4861 91° East 536 617 41,000  Level Chicago Center
Wed 03:56:11 PM 41.5981 -88.2881 92° East 532 612 41,000  Level Chicago Center
Wed 03:57:13 PM 41.5936 -88.0861 92° East 533 613 41,000  Level Chicago Center
Wed 03:58:15 PM 41.5892 -87.8808 92° East 543 625 41,000  Level Chicago Center
Wed 03:59:17 PM 41.5814 -87.6422 92° East 535 616 41,000  Level Chicago Center
Wed 04:00:19 PM 41.5750 -87.4447 92° East 534 615 41,000  Level Chicago Center
Wed 04:01:21 PM 41.5697 -87.2483 92° East 532 612 41,000  Level Chicago Center
Wed 04:02:23 PM 41.5636 -87.0497 92° East 536 617 41,000  Level Chicago Center
Wed 04:03:26 PM 41.5569 -86.8528 93° East 534 615 41,000  Level Chicago Center
Wed 04:04:28 PM 41.5483 -86.6389 93° East 537 618 41,000  Level Chicago Center
Wed 04:05:30 PM 41.5414 -86.4414 93° East 535 616 41,000  Level Chicago Center
Wed 04:06:32 PM 41.5333 -86.2419 93° East 539 620 41,000  Level Chicago Center
Wed 04:07:34 PM 41.5233 -86.0047 93° East 539 620 41,000  Level Chicago Center
Wed 04:08:36 PM 41.5175 -85.8058 92° East 538 619 41,000  Level Chicago Center
Wed 04:09:38 PM 41.5114 -85.6089 92° East 539 620 41,000  Level Chicago Center
Wed 04:10:40 PM 41.5044 -85.4133 93° East 542 624 41,000  Level Chicago Center
Wed 04:11:42 PM 41.4989 -85.1772 92° East 546 628 41,000  Level Chicago Center
Wed 04:12:44 PM 41.4928 -84.9814 92° East 537 618 41,000  Level Chicago Center
Wed 04:13:46 PM 41.4856 -84.7856 93° East 534 615 41,000  Level Chicago Center
Wed 04:14:49 PM 41.4783 -84.5878 93° East 536 617 41,000 -384 Level Chicago Center
Wed 04:15:51 PM 41.4714 -84.3947 93° East 528 608 40,200 -1,161 Descending Chicago Center
Wed 04:16:53 PM 41.4611 -84.1683 93° East 512 589 38,600 -1,475 Descending Chicago Center
Wed 04:17:49 PM 41.4522 -83.9994 94° East 530 610 37,300 -1,424 Descending Cleveland Center
Wed 04:18:51 PM 41.4439 -83.8008 93° East 539 620 35,800 -1,452 Descending Cleveland Center
Wed 04:19:53 PM 41.3978 -83.6158 108° East 530 610 34,300 -1,597 Descending Cleveland Center
Wed 04:20:55 PM 41.3186 -83.4067 117° Southeast 530 610 32,500 -1,597 Descending Cleveland Center
Wed 04:21:57 PM 41.2542 -83.2306 116° Southeast 531 611 31,000 -1,452 Descending Cleveland Center
Wed 04:22:59 PM 41.1889 -83.0561 116° Southeast 533 613 29,500 -1,597 Descending Cleveland Center
Wed 04:24:01 PM 41.1225 -82.8775 116° Southeast 535 616 27,700 -1,887 Descending Cleveland Center
Wed 04:25:03 PM 41.0556 -82.6997 116° Southeast 536 617 25,600 -2,274 Descending Cleveland Center
Wed 04:26:05 PM 40.9808 -82.5039 117° Southeast 511 588 23,000 -2,565 Descending Cleveland Center
Wed 04:27:07 PM 40.9192 -82.3450 117° Southeast 486 559 20,300 -2,592 Descending Cleveland Center
Wed 04:28:10 PM 40.8656 -82.2008 116° Southeast 444 511 17,600 -2,640 Descending Cleveland Center
Wed 04:29:12 PM 40.8097 -82.0575 117° Southeast 438 504 14,800 -2,565 Descending Cleveland Center
Wed 04:30:14 PM 40.7672 -81.9217 112° Southeast 397 457 12,300 -2,323 Descending Cleveland Center
Wed 04:31:16 PM 40.7961 -81.8100 71° East 324 373 10,000 -2,419 Descending Cleveland Center
Wed 04:32:18 PM 40.8614 -81.7167 47° Northeast 298 343 7,300 -2,371 Descending Cleveland Center
Wed 04:33:20 PM 40.9128 -81.6533 43° Northeast 259 298 5,100 -1,548 Descending Cleveland Center
Wed 04:34:22 PM 40.9544 -81.6014 43° Northeast 219 252 4,100 -871 Descending Cleveland Center
Wed 04:35:24 PM 40.9983 -81.5472 43° Northeast 210 242 3,300 -774 Descending Cleveland Center

Login

Don't have an account? Register now (free) for customized features, flight alerts, and more!